createdAt,value
2022-08-11T00:00:48.794Z,0.00
2022-08-11T00:01:48.766Z,0.00
2022-08-11T00:02:48.829Z,0.00
2022-08-11T00:03:48.752Z,0.00
2022-08-11T00:04:48.781Z,0.00
2022-08-11T00:05:48.736Z,0.00
2022-08-11T00:06:48.724Z,0.00
2022-08-11T00:07:48.722Z,0.00
2022-08-11T00:08:48.713Z,0.00
2022-08-11T00:09:48.690Z,0.00
2022-08-11T00:10:49.726Z,0.00
2022-08-11T00:11:48.686Z,0.00
2022-08-11T00:12:48.672Z,0.00
2022-08-11T00:13:48.670Z,0.00
2022-08-11T00:14:48.665Z,0.00
2022-08-11T00:15:48.809Z,0.00
2022-08-11T00:16:48.636Z,0.00
2022-08-11T00:17:49.633Z,0.00
2022-08-11T00:18:48.629Z,0.00
2022-08-11T00:20:15.099Z,0.00
2022-08-11T00:20:49.642Z,0.00
2022-08-11T00:22:03.003Z,0.00
2022-08-11T00:22:49.591Z,0.00
2022-08-11T00:23:48.586Z,0.00
2022-08-11T00:24:53.523Z,0.00
2022-08-11T00:25:49.602Z,0.00
2022-08-11T00:26:48.565Z,0.00
2022-08-11T00:27:48.554Z,0.00
2022-08-11T00:28:48.548Z,0.00
2022-08-11T00:29:51.863Z,0.00
2022-08-11T00:30:49.557Z,0.00
2022-08-11T00:31:48.532Z,0.00
2022-08-11T00:32:48.514Z,0.00
2022-08-11T00:33:48.494Z,0.00
2022-08-11T00:34:48.495Z,0.00
2022-08-11T00:35:54.183Z,0.00
2022-08-11T00:36:49.479Z,0.00
2022-08-11T00:37:48.467Z,0.00
2022-08-11T00:38:48.451Z,0.00
2022-08-11T00:39:48.500Z,0.00
2022-08-11T00:40:48.465Z,0.00
2022-08-11T00:41:48.432Z,0.00
2022-08-11T00:42:49.412Z,0.00
2022-08-11T00:43:48.419Z,0.00
2022-08-11T00:44:48.409Z,0.00
2022-08-11T00:45:48.430Z,0.00
2022-08-11T00:46:48.388Z,0.00
2022-08-11T00:47:48.394Z,0.00
2022-08-11T00:48:48.373Z,0.00
2022-08-11T00:49:48.364Z,0.00
2022-08-11T00:50:48.395Z,0.00
2022-08-11T00:52:02.389Z,0.00
2022-08-11T00:52:49.346Z,0.00
2022-08-11T00:53:48.331Z,0.00
2022-08-11T00:54:48.321Z,0.00
2022-08-11T00:55:55.909Z,0.00
2022-08-11T00:56:49.306Z,0.00
2022-08-11T00:57:48.287Z,0.00
2022-08-11T00:58:50.677Z,0.00
2022-08-11T00:59:48.283Z,0.00
2022-08-11T01:00:48.343Z,0.00
2022-08-11T01:01:48.258Z,0.00
2022-08-11T01:02:48.258Z,0.00
2022-08-11T01:03:48.241Z,0.00
2022-08-11T01:04:50.225Z,0.00
2022-08-11T01:05:49.274Z,0.00
2022-08-11T01:06:48.224Z,0.00
2022-08-11T01:08:01.979Z,0.00
2022-08-11T01:08:49.205Z,0.00
2022-08-11T01:09:48.187Z,0.00
2022-08-11T01:10:48.212Z,0.00
2022-08-11T01:11:55.263Z,0.00
2022-08-11T01:12:49.167Z,0.00
2022-08-11T01:13:48.156Z,0.00
2022-08-11T01:14:48.148Z,0.00
2022-08-11T01:15:56.086Z,0.00
2022-08-11T01:16:49.167Z,0.00
2022-08-11T01:17:48.127Z,0.00
2022-08-11T01:18:48.113Z,0.00
2022-08-11T01:20:45.476Z,0.00
2022-08-11T01:20:49.133Z,0.00
2022-08-11T01:21:49.092Z,0.00
2022-08-11T01:22:48.083Z,0.00
2022-08-11T01:23:48.078Z,0.00
2022-08-11T01:24:48.066Z,0.00
2022-08-11T01:25:56.980Z,0.00
2022-08-11T01:26:49.041Z,0.00
2022-08-11T01:27:48.042Z,0.00
2022-08-11T01:28:48.030Z,0.00
2022-08-11T01:29:49.105Z,0.00
2022-08-11T01:30:48.048Z,0.00
2022-08-11T01:31:48.006Z,0.00
2022-08-11T01:32:47.994Z,0.00
2022-08-11T01:33:47.990Z,0.00
2022-08-11T01:34:47.984Z,0.00
2022-08-11T01:35:48.005Z,0.00
2022-08-11T01:36:47.983Z,0.00
2022-08-11T01:37:48.958Z,0.00
2022-08-11T01:38:47.952Z,0.00
2022-08-11T01:39:48.004Z,0.00
2022-08-11T01:40:47.972Z,0.00
2022-08-11T01:41:47.923Z,0.00
2022-08-11T01:42:47.912Z,0.00
2022-08-11T01:43:47.907Z,0.00
2022-08-11T01:44:47.905Z,0.00
2022-08-11T01:45:47.933Z,0.00
2022-08-11T01:46:47.882Z,0.00
2022-08-11T01:47:52.568Z,0.00
2022-08-11T01:48:49.876Z,0.00
2022-08-11T01:50:06.828Z,0.00
2022-08-11T01:50:48.892Z,0.00
2022-08-11T01:51:47.854Z,0.00
2022-08-11T01:52:47.839Z,0.00
2022-08-11T01:53:47.851Z,0.00
2022-08-11T01:54:47.813Z,0.00
2022-08-11T01:55:47.816Z,0.00
2022-08-11T01:56:47.831Z,0.00
2022-08-11T01:57:47.791Z,0.00
2022-08-11T01:58:47.787Z,0.00
2022-08-11T01:59:47.775Z,0.00
2022-08-11T02:00:47.779Z,0.00
2022-08-11T02:01:47.794Z,0.00
2022-08-11T02:02:47.840Z,0.00
2022-08-11T02:03:47.739Z,0.00
2022-08-11T02:04:47.737Z,0.00
2022-08-11T02:05:47.721Z,0.00
2022-08-11T02:06:47.748Z,0.00
2022-08-11T02:07:47.713Z,0.00
2022-08-11T02:08:50.435Z,0.00
2022-08-11T02:09:49.976Z,0.00
2022-08-11T02:10:50.711Z,0.00
2022-08-11T02:11:47.706Z,0.00
2022-08-11T02:12:52.539Z,0.00
2022-08-11T02:13:48.879Z,0.00
2022-08-11T02:14:57.263Z,0.00
2022-08-11T02:15:48.660Z,0.00
2022-08-11T02:16:47.672Z,0.00
2022-08-11T02:17:47.631Z,0.00
2022-08-11T02:18:47.618Z,0.00
2022-08-11T02:19:47.617Z,0.00
2022-08-11T02:20:47.607Z,0.00
2022-08-11T02:22:02.312Z,0.00
2022-08-11T02:22:47.597Z,0.00
2022-08-11T02:24:05.579Z,0.00
2022-08-11T02:24:48.569Z,0.00
2022-08-11T02:25:47.569Z,0.00
2022-08-11T02:26:47.592Z,0.00
2022-08-11T02:27:47.546Z,0.00
2022-08-11T02:28:47.544Z,0.00
2022-08-11T02:29:47.533Z,0.00
2022-08-11T02:30:47.529Z,0.00
2022-08-11T02:32:23.748Z,0.00
2022-08-11T02:32:48.508Z,0.00
2022-08-11T02:33:47.505Z,0.00
2022-08-11T02:35:00.045Z,0.00
2022-08-11T02:35:48.486Z,0.00
2022-08-11T02:36:47.515Z,0.00
2022-08-11T02:38:30.307Z,0.00
2022-08-11T02:38:47.460Z,0.00
2022-08-11T02:39:47.513Z,0.00
2022-08-11T02:40:47.448Z,0.00
2022-08-11T02:41:47.459Z,0.00
2022-08-11T02:42:47.927Z,0.00
2022-08-11T02:43:50.846Z,0.00
2022-08-11T02:44:47.407Z,0.00
2022-08-11T02:45:47.411Z,0.00
2022-08-11T02:46:47.436Z,0.00
2022-08-11T02:48:41.815Z,0.00
2022-08-11T02:48:47.374Z,0.00
2022-08-11T02:49:47.355Z,0.00
2022-08-11T02:50:55.944Z,0.00
2022-08-11T02:51:47.389Z,0.00
2022-08-11T02:52:47.345Z,0.00
2022-08-11T02:53:48.558Z,0.00
2022-08-11T02:54:48.332Z,0.00
2022-08-11T02:55:57.289Z,0.00
2022-08-11T02:56:48.347Z,0.00
2022-08-11T02:57:47.303Z,0.00
2022-08-11T02:58:47.294Z,0.00
2022-08-11T02:59:47.285Z,0.00
2022-08-11T03:00:47.278Z,0.00
2022-08-11T03:01:47.310Z,0.00
2022-08-11T03:02:47.285Z,0.00
2022-08-11T03:03:47.277Z,0.00
2022-08-11T03:04:47.250Z,0.00
2022-08-11T03:05:47.257Z,0.00
2022-08-11T03:06:47.259Z,0.00
2022-08-11T03:07:47.221Z,0.00
2022-08-11T03:08:47.211Z,0.00
2022-08-11T03:09:47.211Z,0.00
2022-08-11T03:10:47.193Z,0.00
2022-08-11T03:11:47.219Z,0.00
2022-08-11T03:12:50.350Z,0.00
2022-08-11T03:13:49.174Z,0.00
2022-08-11T03:14:47.167Z,0.00
2022-08-11T03:15:47.170Z,0.00
2022-08-11T03:16:47.176Z,0.00
2022-08-11T03:17:47.140Z,0.00
2022-08-11T03:18:47.135Z,0.00
2022-08-11T03:19:47.125Z,0.00
2022-08-11T03:20:47.119Z,0.00
2022-08-11T03:22:03.031Z,0.00
2022-08-11T03:22:48.096Z,4.00
2022-08-11T03:23:47.086Z,4.00
2022-08-11T03:24:47.080Z,0.00
2022-08-11T03:25:47.077Z,0.00
2022-08-11T03:26:47.097Z,4.00
2022-08-11T03:27:47.063Z,0.00
2022-08-11T03:28:47.051Z,4.00
2022-08-11T03:29:47.036Z,4.00
2022-08-11T03:30:47.028Z,4.00
2022-08-11T03:31:47.051Z,4.00
2022-08-11T03:32:47.009Z,4.00
2022-08-11T03:33:47.004Z,8.00
2022-08-11T03:34:46.994Z,8.00
2022-08-11T03:35:46.987Z,12.00
2022-08-11T03:36:55.761Z,12.00
2022-08-11T03:37:47.959Z,16.00
2022-08-11T03:38:46.963Z,20.00
2022-08-11T03:39:51.141Z,20.00
2022-08-11T03:40:47.934Z,24.00
2022-08-11T03:42:03.406Z,28.00
2022-08-11T03:42:47.921Z,32.00
2022-08-11T03:43:58.115Z,36.00
2022-08-11T03:44:47.917Z,40.00
2022-08-11T03:45:46.899Z,48.00
2022-08-11T03:46:46.918Z,56.00
2022-08-11T03:47:52.655Z,64.00
2022-08-11T03:48:47.874Z,72.00
2022-08-11T03:49:46.869Z,80.00
2022-08-11T03:50:47.721Z,92.00
2022-08-11T03:51:51.730Z,104.00
2022-08-11T03:52:47.847Z,116.00
2022-08-11T03:53:46.838Z,128.00
2022-08-11T03:54:46.830Z,144.00
2022-08-11T03:55:46.816Z,164.00
2022-08-11T03:56:46.859Z,180.00
2022-08-11T03:57:46.810Z,196.00
2022-08-11T03:58:46.798Z,216.00
2022-08-11T03:59:46.777Z,240.00
2022-08-11T04:00:46.777Z,260.00
2022-08-11T04:01:46.885Z,288.00
2022-08-11T04:02:46.759Z,308.00
2022-08-11T04:03:46.750Z,336.00
2022-08-11T04:04:50.578Z,364.00
2022-08-11T04:05:46.733Z,392.00
2022-08-11T04:06:46.758Z,420.00
2022-08-11T04:07:46.714Z,452.00
2022-08-11T04:08:46.707Z,484.00
2022-08-11T04:09:46.794Z,524.00
2022-08-11T04:10:46.700Z,560.00
2022-08-11T04:11:46.717Z,596.00
2022-08-11T04:12:47.906Z,636.00
2022-08-11T04:13:47.661Z,676.00
2022-08-11T04:14:46.671Z,720.00
2022-08-11T04:15:46.669Z,764.00
2022-08-11T04:16:46.636Z,808.00
2022-08-11T04:17:46.657Z,856.00
2022-08-11T04:18:46.628Z,908.00
2022-08-11T04:19:46.613Z,960.00
2022-08-11T04:20:47.611Z,1008.00
2022-08-11T04:21:46.611Z,1060.00
2022-08-11T04:22:46.635Z,1116.00
2022-08-11T04:24:37.229Z,1172.00
2022-08-11T04:24:50.478Z,1232.00
2022-08-11T04:25:58.042Z,1292.00
2022-08-11T04:26:47.562Z,1352.00
2022-08-11T04:27:47.729Z,1416.00
2022-08-11T04:28:50.183Z,1476.00
2022-08-11T04:30:01.947Z,1540.00
2022-08-11T04:30:47.530Z,1608.00
2022-08-11T04:31:51.447Z,1672.00
2022-08-11T04:32:47.535Z,1740.00
2022-08-11T04:33:46.498Z,1808.00
2022-08-11T04:34:46.512Z,1880.00
2022-08-11T04:35:50.901Z,1952.00
2022-08-11T04:36:47.481Z,2024.00
2022-08-11T04:37:53.282Z,2100.00
2022-08-11T04:38:47.460Z,2176.00
2022-08-11T04:39:46.494Z,2252.00
2022-08-11T04:40:46.446Z,2332.00
2022-08-11T04:41:46.437Z,2412.00
2022-08-11T04:42:46.460Z,2496.00
2022-08-11T04:44:06.009Z,2580.00
2022-08-11T04:44:48.416Z,2664.00
2022-08-11T04:45:46.429Z,2748.00
2022-08-11T04:46:46.391Z,2840.00
2022-08-11T04:48:04.278Z,2924.00
2022-08-11T04:48:47.375Z,3020.00
2022-08-11T04:49:46.364Z,3120.00
2022-08-11T04:51:00.792Z,3212.00
2022-08-11T04:51:47.339Z,3308.00
2022-08-11T04:52:46.371Z,3412.00
2022-08-11T04:53:46.341Z,3512.00
2022-08-11T04:54:47.331Z,3608.00
2022-08-11T04:55:46.318Z,3704.00
2022-08-11T04:56:46.314Z,3812.00
2022-08-11T04:57:46.330Z,3924.00
2022-08-11T04:58:46.286Z,4032.00
2022-08-11T04:59:46.300Z,4148.00
2022-08-11T05:00:46.268Z,4264.00
2022-08-11T05:01:46.322Z,4380.00
2022-08-11T05:02:46.280Z,4504.00
2022-08-11T05:03:46.248Z,4624.00
2022-08-11T05:04:46.242Z,4748.00
2022-08-11T05:05:54.653Z,4868.00
2022-08-11T05:06:47.228Z,4988.00
2022-08-11T05:07:46.248Z,5108.00
2022-08-11T05:08:46.206Z,5236.00
2022-08-11T05:09:46.185Z,5364.00
2022-08-11T05:10:47.197Z,5508.00
2022-08-11T05:11:46.187Z,5640.00
2022-08-11T05:12:46.207Z,5784.00
2022-08-11T05:13:46.172Z,5936.00
2022-08-11T05:14:46.164Z,6068.00
2022-08-11T05:15:50.920Z,6204.00
2022-08-11T05:16:48.166Z,6348.00
2022-08-11T05:17:46.146Z,6488.00
2022-08-11T05:18:46.122Z,6628.00
2022-08-11T05:19:46.113Z,6748.00
2022-08-11T05:21:07.394Z,6876.00
2022-08-11T05:21:46.127Z,6988.00
2022-08-11T05:22:46.087Z,7128.00
2022-08-11T05:23:46.073Z,7268.00
2022-08-11T05:24:46.074Z,7432.00
2022-08-11T05:26:45.066Z,7620.00
2022-08-11T05:26:49.656Z,7816.00
2022-08-11T05:27:47.039Z,8004.00
2022-08-11T05:28:46.255Z,8152.00
2022-08-11T05:29:46.028Z,8268.00
2022-08-11T05:30:46.016Z,8376.00
2022-08-11T05:31:46.042Z,8444.00
2022-08-11T05:32:45.998Z,8504.00
2022-08-11T05:33:45.987Z,8588.00
2022-08-11T05:34:45.981Z,8676.00
2022-08-11T05:36:00.240Z,8744.00
2022-08-11T05:36:47.004Z,8812.00
2022-08-11T05:37:45.959Z,8916.00
2022-08-11T05:38:45.948Z,9024.00
2022-08-11T05:39:45.978Z,9144.00
2022-08-11T05:40:51.272Z,9264.00
2022-08-11T05:41:47.291Z,9380.00
2022-08-11T05:42:45.911Z,9516.00
2022-08-11T05:44:20.005Z,9640.00
2022-08-11T05:44:46.897Z,9772.00
2022-08-11T05:46:03.956Z,9896.00
2022-08-11T05:46:46.916Z,10004.00
2022-08-11T05:47:45.875Z,10104.00
2022-08-11T05:48:45.871Z,10236.00
2022-08-11T05:49:45.857Z,10360.00
2022-08-11T05:50:45.849Z,10484.00
2022-08-11T05:51:54.612Z,10636.00
2022-08-11T05:52:49.250Z,10784.00
2022-08-11T05:53:46.823Z,10924.00
2022-08-11T05:54:45.861Z,11040.00
2022-08-11T05:56:02.108Z,11180.00
2022-08-11T05:56:46.801Z,11308.00
2022-08-11T05:57:51.505Z,11432.00
2022-08-11T05:58:46.794Z,11568.00
2022-08-11T05:59:45.787Z,11704.00
2022-08-11T06:00:45.786Z,11856.00
2022-08-11T06:01:45.851Z,12008.00
2022-08-11T06:02:45.794Z,12144.00
2022-08-11T06:03:58.685Z,12360.00
2022-08-11T06:04:46.746Z,12596.00
2022-08-11T06:05:45.741Z,12824.00
2022-08-11T06:06:47.124Z,13104.00
2022-08-11T06:07:48.640Z,13360.00
2022-08-11T06:08:45.717Z,13332.00
2022-08-11T06:09:45.715Z,13632.00
2022-08-11T06:10:45.732Z,13680.00
2022-08-11T06:11:45.702Z,13788.00
2022-08-11T06:12:45.729Z,13768.00
2022-08-11T06:13:45.671Z,13840.00
2022-08-11T06:14:45.662Z,14100.00
2022-08-11T06:15:45.673Z,14248.00
2022-08-11T06:16:45.667Z,14368.00
2022-08-11T06:17:45.676Z,14540.00
2022-08-11T06:18:45.634Z,14740.00
2022-08-11T06:19:45.640Z,14880.00
2022-08-11T06:20:45.625Z,15004.00
2022-08-11T06:21:45.629Z,15108.00
2022-08-11T06:22:48.564Z,15272.00
2022-08-11T06:23:46.639Z,15388.00
2022-08-11T06:24:45.594Z,15520.00
2022-08-11T06:25:45.577Z,15668.00
2022-08-11T06:27:09.038Z,15828.00
2022-08-11T06:27:47.591Z,15996.00
2022-08-11T06:28:45.559Z,16236.00
2022-08-11T06:29:48.078Z,16576.00
2022-08-11T06:30:45.542Z,16640.00
2022-08-11T06:31:45.530Z,16768.00
2022-08-11T06:32:45.546Z,16800.00
2022-08-11T06:33:45.511Z,16928.00
2022-08-11T06:34:45.504Z,17024.00
2022-08-11T06:35:45.494Z,17152.00
2022-08-11T06:36:45.485Z,17344.00
2022-08-11T06:37:45.522Z,17504.00
2022-08-11T06:38:45.467Z,17632.00
2022-08-11T06:39:45.470Z,17792.00
2022-08-11T06:40:45.451Z,17984.00
2022-08-11T06:41:45.448Z,18208.00
2022-08-11T06:42:45.475Z,18464.00
2022-08-11T06:43:51.020Z,18592.00
2022-08-11T06:44:46.432Z,18816.00
2022-08-11T06:45:45.435Z,19008.00
2022-08-11T06:46:52.964Z,19168.00
2022-08-11T06:47:45.444Z,19360.00
2022-08-11T06:48:45.390Z,19552.00
2022-08-11T06:49:45.394Z,19712.00
2022-08-11T06:50:45.370Z,20032.00
2022-08-11T06:51:46.366Z,20288.00
2022-08-11T06:52:45.484Z,20480.00
2022-08-11T06:54:03.409Z,20480.00
2022-08-11T06:54:46.354Z,20512.00
2022-08-11T06:55:56.815Z,20608.00
2022-08-11T06:56:46.334Z,20864.00
2022-08-11T06:57:45.327Z,21184.00
2022-08-11T06:58:45.341Z,21536.00
2022-08-11T06:59:45.310Z,21984.00
2022-08-11T07:00:45.302Z,22336.00
2022-08-11T07:01:46.242Z,22720.00
2022-08-11T07:02:45.285Z,23040.00
2022-08-11T07:03:45.313Z,23232.00
2022-08-11T07:04:45.280Z,23360.00
2022-08-11T07:05:45.266Z,23808.00
2022-08-11T07:06:50.607Z,24288.00
2022-08-11T07:07:46.239Z,25056.00
2022-08-11T07:08:45.260Z,26048.00
2022-08-11T07:09:45.232Z,27456.00
2022-08-11T07:10:45.230Z,28704.00
2022-08-11T07:11:45.211Z,29056.00
2022-08-11T07:12:45.207Z,29632.00
2022-08-11T07:13:45.973Z,31648.00
2022-08-11T07:14:46.189Z,34336.00
2022-08-11T07:16:10.585Z,37248.00
2022-08-11T07:16:46.210Z,42464.00
2022-08-11T07:17:45.338Z,50272.00
2022-08-11T07:18:45.188Z,59072.00
2022-08-11T07:19:45.175Z,71104.00
2022-08-11T07:20:45.148Z,87776.00
2022-08-11T07:22:02.615Z,101920.00
2022-08-11T07:22:46.132Z,95648.00
2022-08-11T07:23:45.177Z,73472.00
2022-08-11T07:24:59.793Z,60864.00
2022-08-11T07:25:46.099Z,59168.00
2022-08-11T07:26:45.151Z,59712.00
2022-08-11T07:27:53.721Z,57216.00
2022-08-11T07:28:46.113Z,52384.00
2022-08-11T07:29:45.105Z,48160.00
2022-08-11T07:30:45.071Z,45248.00
2022-08-11T07:31:45.086Z,41728.00
2022-08-11T07:32:45.049Z,39456.00
2022-08-11T07:34:05.919Z,38528.00
2022-08-11T07:34:46.045Z,38240.00
2022-08-11T07:35:45.037Z,37952.00
2022-08-11T07:36:45.024Z,37856.00
2022-08-11T07:37:45.183Z,38208.00
2022-08-11T07:38:46.000Z,36768.00
2022-08-11T07:39:45.058Z,35840.00
2022-08-11T07:40:44.998Z,35552.00
2022-08-11T07:41:45.014Z,35264.00
2022-08-11T07:42:44.997Z,34944.00
2022-08-11T07:43:45.001Z,34944.00
2022-08-11T07:44:45.096Z,35008.00
2022-08-11T07:45:44.991Z,34400.00
2022-08-11T07:46:44.950Z,33280.00
2022-08-11T07:47:44.963Z,34016.00
2022-08-11T07:48:44.988Z,34368.00
2022-08-11T07:49:44.933Z,34336.00
2022-08-11T07:50:44.925Z,34496.00
2022-08-11T07:51:44.928Z,34720.00
2022-08-11T07:52:44.933Z,34624.00
2022-08-11T07:53:58.681Z,34624.00
2022-08-11T07:54:51.126Z,34912.00
2022-08-11T07:55:50.873Z,35424.00
2022-08-11T07:58:00.180Z,36192.00
2022-08-11T07:58:14.251Z,37632.00
2022-08-11T07:58:52.285Z,39424.00
2022-08-11T07:59:58.536Z,39904.00
2022-08-11T08:00:47.034Z,40640.00
2022-08-11T08:01:46.033Z,40896.00
2022-08-11T08:02:44.857Z,39488.00
2022-08-11T08:03:54.817Z,37984.00
2022-08-11T08:04:47.467Z,38432.00
2022-08-11T08:05:45.813Z,38528.00
2022-08-11T08:06:44.819Z,39488.00
2022-08-11T08:07:45.351Z,39904.00
2022-08-11T08:08:44.818Z,40992.00
2022-08-11T08:09:44.855Z,41728.00
2022-08-11T08:10:44.773Z,39872.00
2022-08-11T08:11:44.776Z,38656.00
2022-08-11T08:12:44.783Z,39136.00
2022-08-11T08:13:44.799Z,41728.00
2022-08-11T08:14:44.836Z,45472.00
2022-08-11T08:15:44.774Z,46592.00
2022-08-11T08:16:44.769Z,45856.00
2022-08-11T08:17:44.762Z,43136.00
2022-08-11T08:18:45.737Z,38944.00
2022-08-11T08:19:44.778Z,36800.00
2022-08-11T08:20:44.729Z,34912.00
2022-08-11T08:21:45.359Z,34368.00
2022-08-11T08:22:48.276Z,33984.00
2022-08-11T08:23:45.683Z,33568.00
2022-08-11T08:24:44.715Z,33632.00
2022-08-11T08:25:44.677Z,35392.00
2022-08-11T08:26:51.662Z,54624.00
2022-08-11T08:27:45.661Z,80672.00
2022-08-11T08:28:44.651Z,89536.00
2022-08-11T08:30:14.400Z,82624.00
2022-08-11T08:30:44.648Z,79584.00
2022-08-11T08:31:44.649Z,79232.00
2022-08-11T08:32:45.370Z,80192.00
2022-08-11T08:33:45.372Z,79872.00
2022-08-11T08:34:44.645Z,80992.00
2022-08-11T08:36:09.012Z,81024.00
2022-08-11T08:36:45.607Z,77952.00
2022-08-11T08:37:47.706Z,81024.00
2022-08-11T08:39:30.913Z,77792.00
2022-08-11T08:39:45.641Z,80512.00
2022-08-11T08:40:45.581Z,81216.00
2022-08-11T08:41:44.570Z,82048.00
2022-08-11T08:42:45.511Z,81664.00
2022-08-11T08:43:48.463Z,83936.00
2022-08-11T08:44:45.079Z,83680.00
2022-08-11T08:45:45.539Z,84768.00
2022-08-11T08:46:44.535Z,84480.00
2022-08-11T08:47:44.520Z,83488.00
2022-08-11T08:48:44.515Z,82208.00
2022-08-11T08:49:46.526Z,81152.00
2022-08-11T08:50:46.840Z,82720.00
2022-08-11T08:52:01.751Z,78144.00
2022-08-11T08:52:45.681Z,81440.00
2022-08-11T08:53:52.395Z,82080.00
2022-08-11T08:54:45.508Z,81472.00
2022-08-11T08:55:45.628Z,77824.00
2022-08-11T08:56:45.473Z,75840.00
2022-08-11T08:57:44.462Z,75424.00
2022-08-11T08:58:44.460Z,78848.00
2022-08-11T08:59:48.879Z,80512.00
2022-08-11T09:00:45.433Z,79744.00
2022-08-11T09:01:44.498Z,80256.00
2022-08-11T09:02:45.579Z,81088.00
2022-08-11T09:04:04.737Z,83040.00
2022-08-11T09:04:45.491Z,82720.00
2022-08-11T09:05:44.402Z,83072.00
2022-08-11T09:06:44.389Z,82912.00
2022-08-11T09:07:45.523Z,82976.00
2022-08-11T09:08:44.377Z,83904.00
2022-08-11T09:09:44.399Z,83360.00
2022-08-11T09:10:44.372Z,82752.00
2022-08-11T09:11:44.366Z,83328.00
2022-08-11T09:12:44.362Z,83232.00
2022-08-11T09:13:44.516Z,81664.00
2022-08-11T09:14:44.382Z,80928.00
2022-08-11T09:15:44.330Z,81312.00
2022-08-11T09:16:44.366Z,81120.00
2022-08-11T09:17:44.323Z,82368.00
2022-08-11T09:18:44.324Z,82496.00
2022-08-11T09:19:44.345Z,81760.00
2022-08-11T09:20:45.306Z,83136.00
2022-08-11T09:21:49.421Z,81856.00
2022-08-11T09:22:45.299Z,80608.00
2022-08-11T09:24:46.303Z,79424.00
2022-08-11T09:25:44.268Z,78752.00
2022-08-11T09:26:44.265Z,79264.00
2022-08-11T09:27:50.561Z,79808.00
2022-08-11T09:28:45.265Z,80576.00
2022-08-11T09:29:44.279Z,80544.00
2022-08-11T09:30:44.240Z,80576.00
2022-08-11T09:31:44.236Z,80992.00
2022-08-11T09:32:44.224Z,81312.00
2022-08-11T09:33:44.210Z,82592.00
2022-08-11T09:34:44.234Z,82464.00
2022-08-11T09:35:44.209Z,82432.00
2022-08-11T09:36:44.211Z,83872.00
2022-08-11T09:37:55.517Z,83360.00
2022-08-11T09:38:49.402Z,82336.00
2022-08-11T09:39:45.258Z,82016.00
2022-08-11T09:40:44.187Z,81024.00
2022-08-11T09:42:00.945Z,82368.00
2022-08-11T09:42:45.169Z,80288.00
2022-08-11T09:43:44.161Z,79488.00
2022-08-11T09:44:44.189Z,77984.00
2022-08-11T09:45:44.139Z,79296.00
2022-08-11T09:46:58.920Z,81920.00
2022-08-11T09:47:44.137Z,81856.00
2022-08-11T09:48:44.122Z,76064.00
2022-08-11T09:49:44.152Z,81536.00
2022-08-11T09:50:44.109Z,80960.00
2022-08-11T09:51:56.660Z,81600.00
2022-08-11T09:53:16.559Z,76928.00
2022-08-11T09:54:02.637Z,73728.00
2022-08-11T09:54:48.092Z,84320.00
2022-08-11T09:55:44.089Z,82912.00
2022-08-11T09:57:05.191Z,83424.00
2022-08-11T09:57:45.082Z,82432.00
2022-08-11T09:58:44.127Z,81728.00
2022-08-11T09:59:44.064Z,82432.00
2022-08-11T10:00:44.086Z,82240.00
2022-08-11T10:01:44.095Z,82624.00
2022-08-11T10:02:44.047Z,80800.00
2022-08-11T10:03:44.021Z,76320.00
2022-08-11T10:04:44.116Z,65856.00
2022-08-11T10:05:44.040Z,76224.00
2022-08-11T10:06:44.000Z,79296.00
2022-08-11T10:07:43.999Z,80224.00
2022-08-11T10:08:43.996Z,81888.00
2022-08-11T10:09:43.998Z,79648.00
2022-08-11T10:10:44.012Z,79424.00
2022-08-11T10:11:43.975Z,79584.00
2022-08-11T10:12:44.957Z,73568.00
2022-08-11T10:14:34.042Z,74336.00
2022-08-11T10:14:45.081Z,80544.00
2022-08-11T10:16:00.194Z,81344.00
2022-08-11T10:16:44.931Z,80896.00
2022-08-11T10:17:43.946Z,80064.00
2022-08-11T10:18:43.918Z,79552.00
2022-08-11T10:19:43.920Z,79296.00
2022-08-11T10:20:43.952Z,80864.00
2022-08-11T10:21:43.913Z,81280.00
2022-08-11T10:22:43.910Z,81376.00
2022-08-11T10:24:01.015Z,81376.00
2022-08-11T10:24:44.920Z,81312.00
2022-08-11T10:25:43.922Z,79232.00
2022-08-11T10:26:50.556Z,79360.00
2022-08-11T10:28:17.613Z,79392.00
2022-08-11T10:29:49.798Z,81344.00
2022-08-11T10:30:43.887Z,79808.00
2022-08-11T10:31:56.697Z,79520.00
2022-08-11T10:32:57.435Z,76320.00
2022-08-11T10:33:57.742Z,75744.00
2022-08-11T10:34:54.459Z,75008.00
2022-08-11T10:35:44.863Z,77504.00
2022-08-11T10:36:43.813Z,78368.00
2022-08-11T10:38:15.797Z,78752.00
2022-08-11T10:38:44.797Z,77728.00
2022-08-11T10:39:43.879Z,76704.00
2022-08-11T10:40:43.792Z,77472.00
2022-08-11T10:42:08.283Z,76000.00
2022-08-11T10:42:57.369Z,76160.00
2022-08-11T10:44:01.450Z,75552.00
2022-08-11T10:44:53.212Z,74944.00
2022-08-11T10:45:43.761Z,76736.00
2022-08-11T10:46:43.799Z,76608.00
2022-08-11T10:47:44.283Z,77856.00
2022-08-11T10:48:44.731Z,76320.00
2022-08-11T10:49:43.736Z,75264.00
2022-08-11T10:50:43.723Z,72800.00
2022-08-11T10:51:51.568Z,70656.00
2022-08-11T10:52:44.748Z,71072.00
2022-08-11T10:53:43.699Z,71936.00
2022-08-11T10:54:43.791Z,71872.00
2022-08-11T10:55:43.699Z,72896.00
2022-08-11T10:56:43.715Z,71584.00
2022-08-11T10:57:43.683Z,70912.00
2022-08-11T10:58:44.700Z,71456.00
2022-08-11T10:59:43.662Z,71424.00
2022-08-11T11:00:43.650Z,71552.00
2022-08-11T11:01:43.725Z,71936.00
2022-08-11T11:02:43.644Z,68288.00
2022-08-11T11:03:43.642Z,59520.00
2022-08-11T11:04:45.558Z,50080.00
2022-08-11T11:06:27.235Z,40640.00
2022-08-11T11:06:44.650Z,32352.00
2022-08-11T11:07:44.824Z,26944.00
2022-08-11T11:08:43.630Z,25248.00
2022-08-11T11:09:43.606Z,24704.00
2022-08-11T11:10:43.604Z,24288.00
2022-08-11T11:11:43.614Z,24096.00
2022-08-11T11:12:43.584Z,23936.00
2022-08-11T11:13:53.379Z,23840.00
2022-08-11T11:14:46.262Z,23616.00
2022-08-11T11:15:44.589Z,23456.00
2022-08-11T11:16:43.588Z,23424.00
2022-08-11T11:17:43.552Z,23424.00
2022-08-11T11:18:43.550Z,23680.00
2022-08-11T11:19:44.977Z,25472.00
2022-08-11T11:20:47.427Z,29536.00
2022-08-11T11:21:44.567Z,30912.00
2022-08-11T11:22:43.523Z,27008.00
2022-08-11T11:23:43.513Z,24544.00
2022-08-11T11:24:43.521Z,24832.00
2022-08-11T11:25:43.501Z,26080.00
2022-08-11T11:26:43.532Z,29984.00
2022-08-11T11:27:46.324Z,35776.00
2022-08-11T11:28:43.484Z,46176.00
2022-08-11T11:29:43.474Z,63616.00
2022-08-11T11:30:43.476Z,89696.00
2022-08-11T11:31:43.496Z,109216.00
2022-08-11T11:32:47.624Z,101664.00
2022-08-11T11:34:06.133Z,73184.00
2022-08-11T11:34:53.207Z,34688.00
2022-08-11T11:35:44.452Z,26496.00
2022-08-11T11:36:43.467Z,25952.00
2022-08-11T11:38:04.089Z,25632.00
2022-08-11T11:38:44.433Z,25248.00
2022-08-11T11:39:43.446Z,24768.00
2022-08-11T11:40:43.415Z,24736.00
2022-08-11T11:41:43.439Z,24576.00
2022-08-11T11:43:02.394Z,24608.00
2022-08-11T11:43:43.400Z,24512.00
2022-08-11T11:44:43.394Z,24352.00
2022-08-11T11:45:43.402Z,24064.00
2022-08-11T11:46:43.413Z,24064.00
2022-08-11T11:47:43.365Z,23904.00
2022-08-11T11:48:43.357Z,23552.00
2022-08-11T11:49:43.346Z,23744.00
2022-08-11T11:50:43.346Z,23712.00
2022-08-11T11:51:43.396Z,23808.00
2022-08-11T11:52:43.342Z,23904.00
2022-08-11T11:53:43.338Z,24096.00
2022-08-11T11:54:43.323Z,23552.00
2022-08-11T11:55:43.319Z,22784.00
2022-08-11T11:56:43.346Z,23328.00
2022-08-11T11:57:58.927Z,22816.00
2022-08-11T11:58:44.298Z,22432.00
2022-08-11T11:59:43.282Z,22848.00
2022-08-11T12:00:43.585Z,22752.00
2022-08-11T12:01:44.848Z,22720.00
2022-08-11T12:02:44.276Z,22560.00
2022-08-11T12:03:43.294Z,22464.00
2022-08-11T12:04:43.264Z,22464.00
2022-08-11T12:05:43.244Z,22432.00
2022-08-11T12:06:43.259Z,20832.00
2022-08-11T12:07:43.233Z,21248.00
2022-08-11T12:08:43.242Z,21472.00
2022-08-11T12:09:43.218Z,21984.00
2022-08-11T12:10:43.208Z,22016.00
2022-08-11T12:12:16.190Z,21952.00
2022-08-11T12:12:43.194Z,21824.00
2022-08-11T12:13:43.206Z,21888.00
2022-08-11T12:14:43.192Z,21760.00
2022-08-11T12:16:31.664Z,21696.00
2022-08-11T12:16:44.220Z,21856.00
2022-08-11T12:17:43.162Z,21888.00